
Distance (Route):
Temperature : -8.0°C
Humidity : 113.3%
Pressure : 0hPa| Receiver | Frames | First received | Last received |
|---|---|---|---|
| KE7DJD | 178 | 2026-09-04 17:04:57 | 2026-09-04 19:14:48 |
| Receiver | Date | Latitude | Longitude | Direction | Speed | Altitude | Climb | Temperature | Humidity | Pressure | Voltage | Killtimer | Uptime | BKT | XDATA |
|---|---|---|---|---|---|---|---|---|---|---|---|---|---|---|---|
| KE7DJD | 2026-09-04 19:14:48 | 44.63739 | -115.38426 | 21° | 60km/h | 4439m | -12.6m/s | -8.0°C | 113.3% | 0hPa | 0V | 08:03:00 | 00:00:00 | 00:00:00 | |
| KE7DJD | 2026-09-04 19:14:28 | 44.63424 | -115.38573 | 21° | 68km/h | 4698m | -13.6m/s | -9.8°C | 116.1% | 0hPa | 0V | 08:04:00 | 00:00:00 | 00:00:00 | |
| KE7DJD | 2026-09-04 19:14:08 | 44.63098 | -115.38746 | 22° | 68km/h | 4966m | -13.6m/s | -11.5°C | 111.9% | 0hPa | 0V | 08:04:00 | 00:00:00 | 00:00:00 | |
| KE7DJD | 2026-09-04 19:13:47 | 44.62730 | -115.38912 | 19° | 77km/h | 5204m | -7.8m/s | -12.3°C | 87.4% | 0hPa | 0V | 00:00:00 | 00:00:00 | 00:00:00 | |
| KE7DJD | 2026-09-04 18:04:36 | 44.31142 | -115.50981 | 334° | 37km/h | 18519m | 4.3m/s | -53.3°C | 1.6% | 0hPa | 0V | 00:00:00 | 00:00:00 | 00:00:00 | |
| KE7DJD | 2026-09-04 18:04:16 | 44.31001 | -115.50941 | 333° | 24km/h | 18419m | 6.2m/s | -53.2°C | 1.5% | 0hPa | 0V | 00:00:00 | 00:00:00 | 00:00:00 | |
| KE7DJD | 2026-09-04 18:03:56 | 44.30884 | -115.50870 | 334° | 18km/h | 18323m | 6.0m/s | -53.4°C | 1.7% | 0hPa | 0V | 00:00:00 | 00:00:00 | 00:00:00 | |
| KE7DJD | 2026-09-04 18:03:35 | 44.30796 | -115.50876 | 11° | 9km/h | 18220m | 5.2m/s | -53.1°C | 1.6% | 0hPa | 0V | 00:00:00 | 00:00:00 | 00:00:00 | |
| KE7DJD | 2026-09-04 18:02:54 | 44.30592 | -115.51149 | 57° | 22km/h | 18039m | 4.5m/s | -53.5°C | 1.7% | 0hPa | 0V | 00:00:00 | 00:00:00 | 00:00:00 | |
| KE7DJD | 2026-09-04 18:02:33 | 44.30459 | -115.51289 | 27° | 27km/h | 17941m | 5.4m/s | -53.0°C | 1.5% | 0hPa | 0V | 00:00:00 | 00:00:00 | 00:00:00 | |
| KE7DJD | 2026-09-04 18:02:13 | 44.30341 | -115.51453 | 63° | 37km/h | 17841m | 4.6m/s | -53.7°C | 1.8% | 0hPa | 0V | 00:00:00 | 00:00:00 | 00:00:00 | |
| KE7DJD | 2026-09-04 18:01:52 | 44.30210 | -115.51630 | 51° | 46km/h | 17748m | 5.5m/s | -53.7°C | 2.2% | 0hPa | 0V | 00:00:00 | 00:00:00 | 00:00:00 | |
| KE7DJD | 2026-09-04 18:01:31 | 44.30034 | -115.51833 | 45° | 51km/h | 17642m | 5.5m/s | -53.5°C | 1.7% | 0hPa | 0V | 00:00:00 | 00:00:00 | 00:00:00 | |
| KE7DJD | 2026-09-04 18:01:10 | 44.29787 | -115.52074 | 38° | 68km/h | 17538m | 5.3m/s | -53.6°C | 1.7% | 0hPa | 0V | 00:00:00 | 00:00:00 | 00:00:00 | |
| KE7DJD | 2026-09-04 18:00:51 | 44.29478 | -115.52365 | 32° | 82km/h | 17428m | 4.9m/s | -54.3°C | 1.7% | 0hPa | 0V | 00:00:00 | 00:00:00 | 00:00:00 | |
| KE7DJD | 2026-09-04 18:00:29 | 44.29084 | -115.52647 | 25° | 88km/h | 17323m | 4.8m/s | -55.4°C | 1.8% | 0hPa | 0V | 00:00:00 | 00:00:00 | 00:00:00 | |
| KE7DJD | 2026-09-04 18:00:08 | 44.28686 | -115.52895 | 24° | 75km/h | 17222m | 5.6m/s | -56.0°C | 2.1% | 0hPa | 0V | 00:00:00 | 00:00:00 | 00:00:00 | |
| KE7DJD | 2026-09-04 17:59:48 | 44.28369 | -115.53094 | 18° | 62km/h | 17123m | 4.6m/s | -55.6°C | 2.0% | 0hPa | 0V | 00:00:00 | 00:00:00 | 00:00:00 | |
| KE7DJD | 2026-09-04 17:59:28 | 44.28091 | -115.53253 | 27° | 55km/h | 17026m | 4.6m/s | -54.9°C | 2.0% | 0hPa | 0V | 00:00:00 | 00:00:00 | 00:00:00 | |
| KE7DJD | 2026-09-04 17:59:07 | 44.27805 | -115.53439 | 32° | 58km/h | 16921m | 5.2m/s | -55.4°C | 2.3% | 0hPa | 0V | 00:00:00 | 00:00:00 | 00:00:00 | |
| KE7DJD | 2026-09-04 17:58:46 | 44.27545 | -115.53696 | 31° | 55km/h | 16818m | 5.8m/s | -56.0°C | 2.3% | 0hPa | 0V | 00:00:00 | 00:00:00 | 00:00:00 | |
| KE7DJD | 2026-09-04 17:58:25 | 44.27258 | -115.53825 | 13° | 66km/h | 16707m | 5.9m/s | -56.1°C | 2.3% | 0hPa | 0V | 00:00:00 | 00:00:00 | 00:00:00 | |
| KE7DJD | 2026-09-04 17:58:04 | 44.26954 | -115.53840 | 359° | 71km/h | 16608m | 7.0m/s | -55.7°C | 2.4% | 0hPa | 0V | 00:00:00 | 00:00:00 | 00:00:00 | |
| KE7DJD | 2026-09-04 17:57:43 | 44.26677 | -115.53901 | 358° | 49km/h | 16502m | 3.2m/s | -55.8°C | 2.5% | 0hPa | 0V | 00:00:00 | 00:00:00 | 00:00:00 | |
| KE7DJD | 2026-09-04 17:57:22 | 44.26439 | -115.54021 | 30° | 53km/h | 16401m | 5.5m/s | -54.9°C | 2.5% | 0hPa | 0V | 00:00:00 | 00:00:00 | 00:00:00 | |
| KE7DJD | 2026-09-04 17:57:02 | 44.26227 | -115.54153 | 27° | 57km/h | 16297m | 7.9m/s | -54.6°C | 2.4% | 0hPa | 0V | 00:00:00 | 00:00:00 | 00:00:00 | |
| KE7DJD | 2026-09-04 17:56:41 | 44.26014 | -115.54415 | 43° | 53km/h | 16173m | 5.6m/s | -54.2°C | 2.2% | 0hPa | 0V | 00:00:00 | 00:00:00 | 00:00:00 | |
| KE7DJD | 2026-09-04 17:56:21 | 44.25813 | -115.54760 | 51° | 73km/h | 16077m | 5.3m/s | -55.3°C | 2.5% | 0hPa | 0V | 00:00:00 | 00:00:00 | 00:00:00 | |
| KE7DJD | 2026-09-04 17:56:01 | 44.25588 | -115.55211 | 63° | 77km/h | 15983m | 3.2m/s | -55.2°C | 2.4% | 0hPa | 0V | 00:00:00 | 00:00:00 | 00:00:00 | |
| KE7DJD | 2026-09-04 17:55:40 | 44.25303 | -115.55744 | 55° | 89km/h | 15882m | 6.3m/s | -55.2°C | 2.5% | 0hPa | 0V | 00:00:00 | 00:00:00 | 00:00:00 | |
| KE7DJD | 2026-09-04 17:55:20 | 44.24985 | -115.56268 | 50° | 100km/h | 15789m | 3.7m/s | -55.1°C | 2.6% | 0hPa | 0V | 00:00:00 | 00:00:00 | 00:00:00 | |
| KE7DJD | 2026-09-04 17:55:00 | 44.24620 | -115.56746 | 46° | 106km/h | 15694m | 3.1m/s | -54.5°C | 2.7% | 0hPa | 0V | 00:00:00 | 00:00:00 | 00:00:00 | |
| KE7DJD | 2026-09-04 17:54:40 | 44.24224 | -115.57198 | 35° | 100km/h | 15602m | 5.1m/s | -54.8°C | 2.8% | 0hPa | 0V | 00:00:00 | 00:00:00 | 00:00:00 | |
| KE7DJD | 2026-09-04 17:54:19 | 44.23814 | -115.57593 | 34° | 97km/h | 15506m | 4.3m/s | -55.0°C | 2.7% | 0hPa | 0V | 00:00:00 | 00:00:00 | 00:00:00 | |
| KE7DJD | 2026-09-04 17:53:58 | 44.23434 | -115.57925 | 35° | 86km/h | 15408m | 5.7m/s | -54.6°C | 2.9% | 0hPa | 0V | 00:00:00 | 00:00:00 | 00:00:00 | |
| KE7DJD | 2026-09-04 17:53:37 | 44.23097 | -115.58234 | 42° | 71km/h | 15311m | 3.7m/s | -54.2°C | 2.4% | 0hPa | 0V | 00:00:00 | 00:00:00 | 00:00:00 | |
| KE7DJD | 2026-09-04 17:53:16 | 44.22816 | -115.58536 | 44° | 62km/h | 15218m | 5.5m/s | -54.4°C | 2.5% | 0hPa | 0V | 00:00:00 | 00:00:00 | 00:00:00 | |
| KE7DJD | 2026-09-04 17:52:56 | 44.22552 | -115.58858 | 46° | 75km/h | 15125m | 3.9m/s | -54.3°C | 2.6% | 0hPa | 0V | 00:00:00 | 00:00:00 | 00:00:00 | |
| KE7DJD | 2026-09-04 17:52:36 | 44.22258 | -115.59221 | 46° | 77km/h | 15035m | 5.7m/s | -54.3°C | 2.6% | 0hPa | 0V | 00:00:00 | 00:00:00 | 00:00:00 | |
| KE7DJD | 2026-09-04 17:52:15 | 44.21949 | -115.59605 | 45° | 82km/h | 14938m | 4.2m/s | -54.2°C | 2.6% | 0hPa | 0V | 00:00:00 | 00:00:00 | 00:00:00 | |
| KE7DJD | 2026-09-04 17:51:54 | 44.21625 | -115.60059 | 46° | 99km/h | 14839m | 4.7m/s | -54.7°C | 2.9% | 0hPa | 0V | 00:00:00 | 00:00:00 | 00:00:00 | |
| KE7DJD | 2026-09-04 17:51:34 | 44.21260 | -115.60554 | 43° | 102km/h | 14747m | 3.6m/s | -54.5°C | 3.4% | 0hPa | 0V | 00:00:00 | 00:00:00 | 00:00:00 | |
| KE7DJD | 2026-09-04 17:51:13 | 44.20821 | -115.61079 | 39° | 126km/h | 14647m | 6.1m/s | -54.5°C | 3.6% | 0hPa | 0V | 00:00:00 | 00:00:00 | 00:00:00 | |
| KE7DJD | 2026-09-04 17:50:52 | 44.20317 | -115.61541 | 17° | 117km/h | 14516m | 6.5m/s | -54.4°C | 3.1% | 0hPa | 0V | 00:00:00 | 00:00:00 | 00:00:00 | |
| KE7DJD | 2026-09-04 17:50:32 | 44.19771 | -115.61837 | 22° | 119km/h | 14409m | 6.3m/s | -53.6°C | 3.1% | 0hPa | 0V | 00:00:00 | 00:00:00 | 00:00:00 | |
| KE7DJD | 2026-09-04 17:50:11 | 44.19183 | -115.62092 | 15° | 124km/h | 14312m | 4.7m/s | -53.0°C | 2.7% | 0hPa | 0V | 00:00:00 | 00:00:00 | 00:00:00 | |
| KE7DJD | 2026-09-04 17:49:50 | 44.18612 | -115.62324 | 18° | 108km/h | 14214m | 4.1m/s | -52.4°C | 2.7% | 0hPa | 0V | 00:00:00 | 00:00:00 | 00:00:00 | |
| KE7DJD | 2026-09-04 17:49:30 | 44.18111 | -115.62549 | 17° | 104km/h | 14110m | 4.6m/s | -51.6°C | 2.7% | 0hPa | 0V | 00:00:00 | 00:00:00 | 00:00:00 | |
| KE7DJD | 2026-09-04 17:49:09 | 44.17608 | -115.62803 | 17° | 97km/h | 13996m | 3.9m/s | -51.2°C | 2.9% | 0hPa | 0V | 00:00:00 | 00:00:00 | 00:00:00 | |
| KE7DJD | 2026-09-04 17:48:49 | 44.17175 | -115.63064 | 24° | 88km/h | 13882m | 5.9m/s | -50.7°C | 2.9% | 0hPa | 0V | 00:00:00 | 00:00:00 | 00:00:00 | |
| KE7DJD | 2026-09-04 17:48:28 | 44.16773 | -115.63386 | 38° | 88km/h | 13757m | 6.0m/s | -49.9°C | 2.6% | 0hPa | 0V | 00:00:00 | 00:00:00 | 00:00:00 | |
| KE7DJD | 2026-09-04 17:48:08 | 44.16401 | -115.63773 | 42° | 82km/h | 13650m | 5.1m/s | -49.7°C | 2.7% | 0hPa | 0V | 00:00:00 | 00:00:00 | 00:00:00 | |
| KE7DJD | 2026-09-04 17:47:47 | 44.16029 | -115.64322 | 54° | 108km/h | 13529m | 6.4m/s | -50.6°C | 2.5% | 0hPa | 0V | 00:00:00 | 00:00:00 | 00:00:00 | |
| KE7DJD | 2026-09-04 17:47:26 | 44.15659 | -115.65021 | 56° | 130km/h | 13433m | 4.6m/s | -50.6°C | 2.9% | 0hPa | 0V | 00:00:00 | 00:00:00 | 00:00:00 | |
| KE7DJD | 2026-09-04 17:47:05 | 44.15248 | -115.65785 | 56° | 131km/h | 13337m | 4.4m/s | -49.8°C | 2.5% | 0hPa | 0V | 00:00:00 | 00:00:00 | 00:00:00 | |
| KE7DJD | 2026-09-04 17:46:45 | 44.14847 | -115.66522 | 60° | 130km/h | 13245m | 4.3m/s | -49.1°C | 2.9% | 0hPa | 0V | 00:00:00 | 00:00:00 | 00:00:00 | |
| KE7DJD | 2026-09-04 17:46:25 | 44.14399 | -115.67262 | 50° | 137km/h | 13146m | 5.9m/s | -48.5°C | 2.5% | 0hPa | 0V | 00:00:00 | 00:00:00 | 00:00:00 | |
| KE7DJD | 2026-09-04 17:46:04 | 44.13895 | -115.68040 | 47° | 161km/h | 13047m | 6.1m/s | -48.0°C | 2.4% | 0hPa | 0V | 00:00:00 | 00:00:00 | 00:00:00 | |
| KE7DJD | 2026-09-04 17:45:43 | 44.13322 | -115.68793 | 43° | 153km/h | 12938m | 3.9m/s | -48.0°C | 3.0% | 0hPa | 0V | 00:00:00 | 00:00:00 | 00:00:00 | |
| KE7DJD | 2026-09-04 17:45:23 | 44.12730 | -115.69424 | 39° | 141km/h | 12845m | 4.7m/s | -49.1°C | 3.2% | 0hPa | 0V | 00:00:00 | 00:00:00 | 00:00:00 | |
| KE7DJD | 2026-09-04 17:45:02 | 44.12124 | -115.70097 | 44° | 150km/h | 12753m | 4.7m/s | -48.7°C | 3.0% | 0hPa | 0V | 00:00:00 | 00:00:00 | 00:00:00 | |
| KE7DJD | 2026-09-04 17:44:41 | 44.11523 | -115.70798 | 42° | 146km/h | 12658m | 5.7m/s | -47.9°C | 3.3% | 0hPa | 0V | 00:00:00 | 00:00:00 | 00:00:00 | |
| KE7DJD | 2026-09-04 17:44:20 | 44.10916 | -115.71498 | 39° | 144km/h | 12562m | 3.9m/s | -48.0°C | 3.5% | 0hPa | 0V | 00:00:00 | 00:00:00 | 00:00:00 | |
| KE7DJD | 2026-09-04 17:44:00 | 44.10352 | -115.72199 | 46° | 146km/h | 12470m | 5.2m/s | -48.2°C | 3.5% | 0hPa | 0V | 00:00:00 | 00:00:00 | 00:00:00 | |
| KE7DJD | 2026-09-04 17:43:39 | 44.09762 | -115.72932 | 40° | 142km/h | 12373m | 4.5m/s | -47.7°C | 3.5% | 0hPa | 0V | 00:00:00 | 00:00:00 | 00:00:00 | |
| KE7DJD | 2026-09-04 17:43:19 | 44.09182 | -115.73575 | 39° | 142km/h | 12283m | 5.8m/s | -47.5°C | 3.7% | 0hPa | 0V | 00:00:00 | 00:00:00 | 00:00:00 | |
| KE7DJD | 2026-09-04 17:42:59 | 44.08630 | -115.74216 | 43° | 142km/h | 12195m | 5.5m/s | -47.5°C | 4.1% | 0hPa | 0V | 00:00:00 | 00:00:00 | 00:00:00 | |
| KE7DJD | 2026-09-04 17:42:38 | 44.08065 | -115.74854 | 40° | 144km/h | 12105m | 3.3m/s | -48.0°C | 4.8% | 0hPa | 0V | 00:00:00 | 00:00:00 | 00:00:00 | |
| KE7DJD | 2026-09-04 17:42:18 | 44.07493 | -115.75483 | 41° | 151km/h | 12026m | 2.8m/s | -48.3°C | 5.6% | 0hPa | 0V | 00:00:00 | 00:00:00 | 00:00:00 | |
| KE7DJD | 2026-09-04 17:41:58 | 44.06929 | -115.76108 | 42° | 144km/h | 11945m | 4.6m/s | -48.4°C | 6.5% | 0hPa | 0V | 00:00:00 | 00:00:00 | 00:00:00 | |
| KE7DJD | 2026-09-04 17:41:38 | 44.06359 | -115.76768 | 41° | 144km/h | 11867m | 2.9m/s | -48.1°C | 7.1% | 0hPa | 0V | 00:00:00 | 00:00:00 | 00:00:00 | |
| KE7DJD | 2026-09-04 17:41:17 | 44.05751 | -115.77511 | 42° | 153km/h | 11784m | 3.7m/s | -49.9°C | 12.5% | 0hPa | 0V | 00:00:00 | 00:00:00 | 00:00:00 | |
| KE7DJD | 2026-09-04 17:40:57 | 44.05119 | -115.78193 | 36° | 159km/h | 11704m | 4.5m/s | -51.0°C | 21.0% | 0hPa | 0V | 00:00:00 | 00:00:00 | 00:00:00 | |
| KE7DJD | 2026-09-04 17:40:36 | 44.04383 | -115.78815 | 29° | 151km/h | 11594m | 5.7m/s | -52.5°C | 31.9% | 0hPa | 0V | 00:00:00 | 00:00:00 | 00:00:00 | |
| KE7DJD | 2026-09-04 17:40:15 | 44.03679 | -115.79393 | 34° | 153km/h | 11505m | 5.5m/s | -51.7°C | 30.5% | 0hPa | 0V | 00:00:00 | 00:00:00 | 00:00:00 | |
| KE7DJD | 2026-09-04 17:39:54 | 44.02982 | -115.79973 | 33° | 151km/h | 11410m | 4.3m/s | -50.8°C | 31.0% | 0hPa | 0V | 00:00:00 | 00:00:00 | 00:00:00 | |
| KE7DJD | 2026-09-04 17:39:33 | 44.02322 | -115.80566 | 34° | 159km/h | 11301m | 4.1m/s | -50.0°C | 28.5% | 0hPa | 0V | 00:00:00 | 00:00:00 | 00:00:00 | |
| KE7DJD | 2026-09-04 17:39:12 | 44.01673 | -115.81243 | 39° | 153km/h | 11204m | 4.8m/s | -49.7°C | 28.9% | 0hPa | 0V | 00:00:00 | 00:00:00 | 00:00:00 | |
| KE7DJD | 2026-09-04 17:38:52 | 44.01058 | -115.81917 | 39° | 164km/h | 11108m | 3.4m/s | -48.9°C | 27.1% | 0hPa | 0V | 00:00:00 | 00:00:00 | 00:00:00 | |
| KE7DJD | 2026-09-04 17:38:32 | 44.00402 | -115.82540 | 37° | 148km/h | 10997m | 8.0m/s | -47.8°C | 22.9% | 0hPa | 0V | 00:00:00 | 00:00:00 | 00:00:00 | |
| KE7DJD | 2026-09-04 17:38:12 | 43.99743 | -115.83163 | 34° | 157km/h | 10902m | 3.6m/s | -47.1°C | 21.8% | 0hPa | 0V | 00:00:00 | 00:00:00 | 00:00:00 | |
| KE7DJD | 2026-09-04 17:37:51 | 43.99051 | -115.83832 | 38° | 159km/h | 10805m | 4.0m/s | -46.6°C | 20.0% | 0hPa | 0V | 00:00:00 | 00:00:00 | 00:00:00 | |
| KE7DJD | 2026-09-04 17:37:31 | 43.98390 | -115.84492 | 37° | 166km/h | 10716m | 5.3m/s | -46.6°C | 31.6% | 0hPa | 0V | 00:00:00 | 00:00:00 | 00:00:00 | |
| KE7DJD | 2026-09-04 17:37:10 | 43.97659 | -115.85160 | 34° | 172km/h | 10624m | 3.8m/s | -46.2°C | 41.5% | 0hPa | 0V | 00:00:00 | 00:00:00 | 00:00:00 | |
| KE7DJD | 2026-09-04 17:36:49 | 43.96908 | -115.85803 | 35° | 159km/h | 10535m | 3.5m/s | -45.5°C | 38.1% | 0hPa | 0V | 00:00:00 | 00:00:00 | 00:00:00 | |
| KE7DJD | 2026-09-04 17:36:28 | 43.96162 | -115.86457 | 32° | 164km/h | 10447m | 4.5m/s | -44.7°C | 31.8% | 0hPa | 0V | 00:00:00 | 00:00:00 | 00:00:00 | |
| KE7DJD | 2026-09-04 17:36:08 | 43.95421 | -115.87121 | 33° | 161km/h | 10358m | 3.0m/s | -44.1°C | 36.6% | 0hPa | 0V | 00:00:00 | 00:00:00 | 00:00:00 | |
| KE7DJD | 2026-09-04 17:35:47 | 43.94717 | -115.87766 | 34° | 166km/h | 10275m | 2.8m/s | -43.2°C | 29.2% | 0hPa | 0V | 00:00:00 | 00:00:00 | 00:00:00 | |
| KE7DJD | 2026-09-04 17:35:27 | 43.94028 | -115.88428 | 34° | 162km/h | 10195m | 3.7m/s | -42.5°C | 25.3% | 0hPa | 0V | 00:00:00 | 00:00:00 | 00:00:00 | |
| KE7DJD | 2026-09-04 17:35:07 | 43.93332 | -115.89089 | 34° | 170km/h | 10121m | 4.4m/s | -42.0°C | 20.7% | 0hPa | 0V | 00:00:00 | 00:00:00 | 00:00:00 | |
| KE7DJD | 2026-09-04 17:34:46 | 43.92612 | -115.89777 | 35° | 164km/h | 10038m | 4.7m/s | -41.7°C | 15.0% | 0hPa | 0V | 00:00:00 | 00:00:00 | 00:00:00 | |
| KE7DJD | 2026-09-04 17:34:25 | 43.91874 | -115.90451 | 33° | 168km/h | 9958m | 4.1m/s | -41.4°C | 23.9% | 0hPa | 0V | 00:00:00 | 00:00:00 | 00:00:00 | |
| KE7DJD | 2026-09-04 17:34:04 | 43.91126 | -115.91110 | 31° | 164km/h | 9865m | 4.8m/s | -40.5°C | 21.5% | 0hPa | 0V | 00:00:00 | 00:00:00 | 00:00:00 | |
| KE7DJD | 2026-09-04 17:33:43 | 43.90367 | -115.91753 | 32° | 175km/h | 9781m | 4.3m/s | -40.1°C | 22.6% | 0hPa | 0V | 00:00:00 | 00:00:00 | 00:00:00 | |
| KE7DJD | 2026-09-04 17:33:23 | 43.89630 | -115.92364 | 31° | 168km/h | 9703m | 3.5m/s | -39.4°C | 22.3% | 0hPa | 0V | 00:00:00 | 00:00:00 | 00:00:00 | |
| KE7DJD | 2026-09-04 17:33:02 | 43.88854 | -115.93004 | 33° | 173km/h | 9618m | 3.3m/s | -38.6°C | 20.2% | 0hPa | 0V | 00:00:00 | 00:00:00 | 00:00:00 | |
| KE7DJD | 2026-09-04 17:32:42 | 43.88118 | -115.93607 | 31° | 166km/h | 9536m | 5.0m/s | -37.9°C | 26.3% | 0hPa | 0V | 00:00:00 | 00:00:00 | 00:00:00 | |
| KE7DJD | 2026-09-04 17:32:21 | 43.87357 | -115.94235 | 34° | 166km/h | 9443m | 5.0m/s | -37.3°C | 35.4% | 0hPa | 0V | 00:00:00 | 00:00:00 | 00:00:00 | |
| KE7DJD | 2026-09-04 17:32:01 | 43.86656 | -115.94845 | 35° | 164km/h | 9347m | 2.4m/s | -36.4°C | 38.1% | 0hPa | 0V | 00:00:00 | 00:00:00 | 00:00:00 | |
| KE7DJD | 2026-09-04 17:31:41 | 43.85969 | -115.95460 | 35° | 164km/h | 9265m | 2.7m/s | -35.8°C | 38.8% | 0hPa | 0V | 00:00:00 | 00:00:00 | 00:00:00 | |
| KE7DJD | 2026-09-04 17:31:20 | 43.85242 | -115.96084 | 36° | 162km/h | 9181m | 3.0m/s | -35.5°C | 46.0% | 0hPa | 0V | 00:00:00 | 00:00:00 | 00:00:00 | |
| KE7DJD | 2026-09-04 17:30:59 | 43.84495 | -115.96686 | 33° | 162km/h | 9100m | 4.7m/s | -35.2°C | 32.3% | 0hPa | 0V | 00:00:00 | 00:00:00 | 00:00:00 | |
| KE7DJD | 2026-09-04 17:30:39 | 43.83777 | -115.97249 | 27° | 161km/h | 9018m | 3.9m/s | -34.5°C | 19.1% | 0hPa | 0V | 00:00:00 | 00:00:00 | 00:00:00 | |
| KE7DJD | 2026-09-04 17:30:18 | 43.83018 | -115.97826 | 31° | 159km/h | 8931m | 5.0m/s | -34.0°C | 15.0% | 0hPa | 0V | 00:00:00 | 00:00:00 | 00:00:00 | |
| KE7DJD | 2026-09-04 17:29:57 | 43.82276 | -115.98431 | 32° | 162km/h | 8839m | 5.0m/s | -33.3°C | 17.7% | 0hPa | 0V | 00:00:00 | 00:00:00 | 00:00:00 | |
| KE7DJD | 2026-09-04 17:29:37 | 43.81573 | -115.99025 | 33° | 170km/h | 8753m | 3.0m/s | -32.5°C | 17.9% | 0hPa | 0V | 00:00:00 | 00:00:00 | 00:00:00 | |
| KE7DJD | 2026-09-04 17:29:17 | 43.80869 | -115.99615 | 31° | 166km/h | 8666m | 5.1m/s | -31.7°C | 14.2% | 0hPa | 0V | 00:00:00 | 00:00:00 | 00:00:00 | |
| KE7DJD | 2026-09-04 17:28:56 | 43.80123 | -116.00240 | 33° | 166km/h | 8574m | 5.6m/s | -31.3°C | 11.8% | 0hPa | 0V | 00:00:00 | 00:00:00 | 00:00:00 | |
| KE7DJD | 2026-09-04 17:28:35 | 43.79385 | -116.00894 | 33° | 168km/h | 8477m | 3.9m/s | -30.4°C | 12.3% | 0hPa | 0V | 00:00:00 | 00:00:00 | 00:00:00 | |
| KE7DJD | 2026-09-04 17:28:15 | 43.78690 | -116.01536 | 36° | 170km/h | 8387m | 4.8m/s | -29.8°C | 13.3% | 0hPa | 0V | 00:00:00 | 00:00:00 | 00:00:00 | |
| KE7DJD | 2026-09-04 17:27:54 | 43.77961 | -116.02221 | 37° | 157km/h | 8287m | 4.5m/s | -28.9°C | 12.5% | 0hPa | 0V | 00:00:00 | 00:00:00 | 00:00:00 | |
| KE7DJD | 2026-09-04 17:27:33 | 43.77262 | -116.02905 | 34° | 157km/h | 8187m | 4.4m/s | -28.4°C | 10.9% | 0hPa | 0V | 00:00:00 | 00:00:00 | 00:00:00 | |
| KE7DJD | 2026-09-04 17:27:12 | 43.76576 | -116.03611 | 31° | 161km/h | 8085m | 4.4m/s | -27.6°C | 11.6% | 0hPa | 0V | 00:00:00 | 00:00:00 | 00:00:00 | |
| KE7DJD | 2026-09-04 17:26:52 | 43.75947 | -116.04335 | 41° | 157km/h | 7983m | 3.0m/s | -27.3°C | 9.9% | 0hPa | 0V | 00:00:00 | 00:00:00 | 00:00:00 | |
| KE7DJD | 2026-09-04 17:26:32 | 43.75322 | -116.04998 | 39° | 153km/h | 7902m | 3.7m/s | -26.8°C | 10.6% | 0hPa | 0V | 00:00:00 | 00:00:00 | 00:00:00 | |
| KE7DJD | 2026-09-04 17:26:11 | 43.74669 | -116.05692 | 40° | 155km/h | 7818m | 4.6m/s | -26.7°C | 10.8% | 0hPa | 0V | 00:00:00 | 00:00:00 | 00:00:00 | |
| KE7DJD | 2026-09-04 17:25:51 | 43.74078 | -116.06324 | 41° | 146km/h | 7739m | 5.6m/s | -26.2°C | 11.5% | 0hPa | 0V | 00:00:00 | 00:00:00 | 00:00:00 | |
| KE7DJD | 2026-09-04 17:25:31 | 43.73503 | -116.06962 | 34° | 135km/h | 7652m | 7.3m/s | -26.0°C | 11.5% | 0hPa | 0V | 00:00:00 | 00:00:00 | 00:00:00 | |
| KE7DJD | 2026-09-04 17:25:11 | 43.72893 | -116.07529 | 32° | 141km/h | 7544m | 5.0m/s | -25.2°C | 10.6% | 0hPa | 0V | 00:00:00 | 00:00:00 | 00:00:00 | |
| KE7DJD | 2026-09-04 17:24:50 | 43.72222 | -116.08112 | 30° | 151km/h | 7435m | 4.1m/s | -24.6°C | 10.0% | 0hPa | 0V | 00:00:00 | 00:00:00 | 00:00:00 | |
| KE7DJD | 2026-09-04 17:24:29 | 43.71553 | -116.08662 | 33° | 148km/h | 7349m | 4.0m/s | -24.6°C | 15.7% | 0hPa | 0V | 00:00:00 | 00:00:00 | 00:00:00 | |
| KE7DJD | 2026-09-04 17:24:08 | 43.70879 | -116.09200 | 33° | 142km/h | 7259m | 5.3m/s | -24.6°C | 18.8% | 0hPa | 0V | 00:00:00 | 00:00:00 | 00:00:00 | |
| KE7DJD | 2026-09-04 17:23:47 | 43.70223 | -116.09739 | 30° | 142km/h | 7177m | 4.3m/s | -24.0°C | 19.8% | 0hPa | 0V | 00:00:00 | 00:00:00 | 00:00:00 | |
| KE7DJD | 2026-09-04 17:23:26 | 43.69570 | -116.10280 | 34° | 146km/h | 7074m | 3.3m/s | -23.6°C | 20.9% | 0hPa | 0V | 00:00:00 | 00:00:00 | 00:00:00 | |
| KE7DJD | 2026-09-04 17:23:06 | 43.68975 | -116.10821 | 37° | 139km/h | 6992m | 4.2m/s | -23.0°C | 21.3% | 0hPa | 0V | 00:00:00 | 00:00:00 | 00:00:00 | |
| KE7DJD | 2026-09-04 17:22:46 | 43.68395 | -116.11393 | 38° | 137km/h | 6900m | 4.1m/s | -22.8°C | 21.6% | 0hPa | 0V | 00:00:00 | 00:00:00 | 00:00:00 | |
| KE7DJD | 2026-09-04 17:22:26 | 43.67840 | -116.11948 | 42° | 120km/h | 6806m | 4.0m/s | -22.8°C | 25.2% | 0hPa | 0V | 00:00:00 | 00:00:00 | 00:00:00 | |
| KE7DJD | 2026-09-04 17:22:05 | 43.67317 | -116.12513 | 37° | 111km/h | 6707m | 5.0m/s | -22.6°C | 31.9% | 0hPa | 0V | 00:00:00 | 00:00:00 | 00:00:00 | |
| KE7DJD | 2026-09-04 17:21:45 | 43.66865 | -116.13003 | 39° | 104km/h | 6622m | 4.7m/s | -22.3°C | 27.5% | 0hPa | 0V | 00:00:00 | 00:00:00 | 00:00:00 | |
| KE7DJD | 2026-09-04 17:21:25 | 43.66406 | -116.13480 | 38° | 104km/h | 6535m | 5.8m/s | -22.1°C | 26.7% | 0hPa | 0V | 00:00:00 | 00:00:00 | 00:00:00 | |
| KE7DJD | 2026-09-04 17:21:04 | 43.65970 | -116.13918 | 37° | 117km/h | 6432m | 5.9m/s | -21.3°C | 30.5% | 0hPa | 0V | 00:00:00 | 00:00:00 | 00:00:00 | |
| KE7DJD | 2026-09-04 17:20:44 | 43.65560 | -116.14319 | 37° | 113km/h | 6316m | 4.5m/s | -20.4°C | 31.3% | 0hPa | 0V | 00:00:00 | 00:00:00 | 00:00:00 | |
| KE7DJD | 2026-09-04 17:20:23 | 43.65129 | -116.14685 | 33° | 99km/h | 6204m | 7.5m/s | -19.4°C | 65.2% | 0hPa | 0V | 00:00:00 | 00:00:00 | 00:00:00 | |
| KE7DJD | 2026-09-04 17:20:02 | 43.64719 | -116.15010 | 30° | 99km/h | 6092m | 4.3m/s | -19.1°C | 66.4% | 0hPa | 0V | 00:00:00 | 00:00:00 | 00:00:00 | |
| KE7DJD | 2026-09-04 17:19:42 | 43.64360 | -116.15310 | 37° | 75km/h | 5975m | 8.4m/s | -16.9°C | 90.5% | 0hPa | 0V | 00:00:00 | 00:00:00 | 00:00:00 | |
| KE7DJD | 2026-09-04 17:19:22 | 43.64062 | -116.15510 | 18° | 57km/h | 5840m | 6.2m/s | -16.2°C | 92.6% | 0hPa | 0V | 00:00:00 | 00:00:00 | 00:00:00 | |
| KE7DJD | 2026-09-04 17:19:01 | 43.63740 | -116.15717 | 36° | 75km/h | 5717m | 7.2m/s | -15.5°C | 93.1% | 0hPa | 0V | 00:00:00 | 00:00:00 | 00:00:00 | |
| KE7DJD | 2026-09-04 17:18:40 | 43.63413 | -116.15841 | 16° | 77km/h | 5574m | 8.0m/s | -14.5°C | 94.1% | 0hPa | 0V | 00:00:00 | 00:00:00 | 00:00:00 | |
| KE7DJD | 2026-09-04 17:18:20 | 43.63124 | -116.15997 | 33° | 47km/h | 5456m | 5.3m/s | -13.9°C | 94.2% | 0hPa | 0V | 00:00:00 | 00:00:00 | 00:00:00 | |
| KE7DJD | 2026-09-04 17:18:00 | 43.62822 | -116.16198 | 24° | 53km/h | 5331m | 5.9m/s | -13.0°C | 94.0% | 0hPa | 0V | 00:00:00 | 00:00:00 | 00:00:00 | |
| KE7DJD | 2026-09-04 17:17:39 | 43.62488 | -116.16361 | 11° | 73km/h | 5221m | 5.2m/s | -12.1°C | 94.6% | 0hPa | 0V | 00:00:00 | 00:00:00 | 00:00:00 | |
| KE7DJD | 2026-09-04 17:17:18 | 43.62183 | -116.16456 | 25° | 66km/h | 5088m | 8.3m/s | -11.4°C | 95.0% | 0hPa | 0V | 00:00:00 | 00:00:00 | 00:00:00 | |
| KE7DJD | 2026-09-04 17:16:57 | 43.61852 | -116.16591 | 25° | 55km/h | 4956m | 6.0m/s | -10.5°C | 95.8% | 0hPa | 0V | 00:00:00 | 00:00:00 | 00:00:00 | |
| KE7DJD | 2026-09-04 17:16:36 | 43.61549 | -116.16653 | 22° | 55km/h | 4807m | 7.7m/s | -10.0°C | 97.6% | 0hPa | 0V | 00:00:00 | 00:00:00 | 00:00:00 | |
| KE7DJD | 2026-09-04 17:16:16 | 43.61230 | -116.16749 | 28° | 66km/h | 4691m | 5.5m/s | -9.3°C | 97.6% | 0hPa | 0V | 00:00:00 | 00:00:00 | 00:00:00 | |
| KE7DJD | 2026-09-04 17:15:56 | 43.60941 | -116.16864 | 26° | 44km/h | 4576m | 4.9m/s | -8.7°C | 97.8% | 0hPa | 0V | 00:00:00 | 00:00:00 | 00:00:00 | |
| KE7DJD | 2026-09-04 17:15:35 | 43.60634 | -116.17068 | 35° | 49km/h | 4468m | 4.5m/s | -7.9°C | 95.3% | 0hPa | 0V | 00:00:00 | 00:00:00 | 00:00:00 | |
| KE7DJD | 2026-09-04 17:15:15 | 43.60359 | -116.17215 | 16° | 60km/h | 4374m | 5.5m/s | -7.0°C | 90.8% | 0hPa | 0V | 00:00:00 | 00:00:00 | 00:00:00 | |
| KE7DJD | 2026-09-04 17:14:54 | 43.60134 | -116.17440 | 56° | 57km/h | 4270m | 3.6m/s | -7.1°C | 92.8% | 0hPa | 0V | 00:00:00 | 00:00:00 | 00:00:00 | |
| KE7DJD | 2026-09-04 17:14:34 | 43.59908 | -116.17738 | 45° | 71km/h | 4179m | 5.0m/s | -6.6°C | 94.9% | 0hPa | 0V | 00:00:00 | 00:00:00 | 00:00:00 | |
| KE7DJD | 2026-09-04 17:14:13 | 43.59670 | -116.18008 | 39° | 64km/h | 4072m | 5.2m/s | -5.9°C | 93.8% | 0hPa | 0V | 00:00:00 | 00:00:00 | 00:00:00 | |
| KE7DJD | 2026-09-04 17:13:53 | 43.59437 | -116.18303 | 39° | 62km/h | 3970m | 4.1m/s | -5.2°C | 93.7% | 0hPa | 0V | 00:00:00 | 00:00:00 | 00:00:00 | |
| KE7DJD | 2026-09-04 17:13:31 | 43.59231 | -116.18620 | 67° | 62km/h | 3868m | 7.0m/s | -4.9°C | 90.8% | 0hPa | 0V | 00:00:00 | 00:00:00 | 00:00:00 | |
| KE7DJD | 2026-09-04 17:13:10 | 43.59040 | -116.18978 | 69° | 47km/h | 3778m | 3.8m/s | -4.9°C | 84.5% | 0hPa | 0V | 00:00:00 | 00:00:00 | 00:00:00 | |
| KE7DJD | 2026-09-04 17:12:50 | 43.58940 | -116.19386 | 79° | 62km/h | 3684m | 6.4m/s | -4.7°C | 90.5% | 0hPa | 0V | 00:00:00 | 00:00:00 | 00:00:00 | |
| KE7DJD | 2026-09-04 17:12:29 | 43.58848 | -116.19653 | 43° | 44km/h | 3577m | 5.8m/s | -4.2°C | 94.4% | 0hPa | 0V | 00:00:00 | 00:00:00 | 00:00:00 | |
| KE7DJD | 2026-09-04 17:12:08 | 43.58734 | -116.19877 | 64° | 24km/h | 3474m | 5.4m/s | -3.2°C | 90.6% | 0hPa | 0V | 00:00:00 | 00:00:00 | 00:00:00 | |
| KE7DJD | 2026-09-04 17:11:47 | 43.58645 | -116.20068 | 37° | 26km/h | 3355m | 5.0m/s | -2.1°C | 84.7% | 0hPa | 0V | 00:00:00 | 00:00:00 | 00:00:00 | |
| KE7DJD | 2026-09-04 17:11:27 | 43.58532 | -116.20226 | 51° | 26km/h | 3252m | 5.6m/s | -1.1°C | 80.4% | 0hPa | 0V | 00:00:00 | 00:00:00 | 00:00:00 | |
| KE7DJD | 2026-09-04 17:11:06 | 43.58401 | -116.20411 | 30° | 44km/h | 3149m | 4.3m/s | -0.2°C | 77.0% | 0hPa | 0V | 00:00:00 | 00:00:00 | 00:00:00 | |
| KE7DJD | 2026-09-04 17:10:45 | 43.58252 | -116.20565 | 45° | 38km/h | 3037m | 4.0m/s | 0.4°C | 79.0% | 0hPa | 0V | 00:00:00 | 00:00:00 | 00:00:00 | |
| KE7DJD | 2026-09-04 17:10:25 | 43.58152 | -116.20639 | 34° | 24km/h | 2941m | 5.8m/s | 1.0°C | 79.8% | 0hPa | 0V | 00:00:00 | 00:00:00 | 00:00:00 | |
| KE7DJD | 2026-09-04 17:10:04 | 43.58012 | -116.20740 | 46° | 29km/h | 2837m | 4.9m/s | 1.6°C | 83.4% | 0hPa | 0V | 00:00:00 | 00:00:00 | 00:00:00 | |
| KE7DJD | 2026-09-04 17:09:44 | 43.57882 | -116.20821 | 35° | 27km/h | 2733m | 5.9m/s | 2.2°C | 85.3% | 0hPa | 0V | 00:00:00 | 00:00:00 | 00:00:00 | |
| KE7DJD | 2026-09-04 17:09:23 | 43.57718 | -116.20883 | 25° | 16km/h | 2619m | 4.4m/s | 2.7°C | 85.7% | 0hPa | 0V | 00:00:00 | 00:00:00 | 00:00:00 | |
| KE7DJD | 2026-09-04 17:09:03 | 43.57559 | -116.20948 | 358° | 38km/h | 2519m | 4.6m/s | 3.5°C | 83.1% | 0hPa | 0V | 00:00:00 | 00:00:00 | 00:00:00 | |
| KE7DJD | 2026-09-04 17:08:43 | 43.57417 | -116.20969 | 7° | 38km/h | 2408m | 7.4m/s | 4.4°C | 79.1% | 0hPa | 0V | 00:00:00 | 00:00:00 | 00:00:00 | |
| KE7DJD | 2026-09-04 17:08:21 | 43.57269 | -116.20983 | 25° | 35km/h | 2291m | 5.5m/s | 4.9°C | 75.6% | 0hPa | 0V | 00:00:00 | 00:00:00 | 00:00:00 | |
| KE7DJD | 2026-09-04 17:08:01 | 43.57174 | -116.20998 | 1° | 27km/h | 2194m | 5.9m/s | 5.0°C | 69.5% | 0hPa | 0V | 00:00:00 | 00:00:00 | 00:00:00 | |
| KE7DJD | 2026-09-04 17:07:41 | 43.57094 | -116.20974 | 19° | 20km/h | 2085m | 5.2m/s | 5.4°C | 67.2% | 0hPa | 0V | 00:00:00 | 00:00:00 | 00:00:00 | |
| KE7DJD | 2026-09-04 17:07:20 | 43.56980 | -116.20943 | 344° | 27km/h | 1957m | 5.8m/s | 5.7°C | 72.5% | 0hPa | 0V | 00:00:00 | 00:00:00 | 00:00:00 | |
| KE7DJD | 2026-09-04 17:07:01 | 43.56877 | -116.20885 | 302° | 20km/h | 1851m | 6.2m/s | 6.0°C | 73.8% | 0hPa | 0V | 00:00:00 | 00:00:00 | 00:00:00 | |
| KE7DJD | 2026-09-04 17:06:39 | 43.56778 | -116.20853 | 19° | 9km/h | 1740m | 4.2m/s | 6.6°C | 72.7% | 0hPa | 0V | 00:00:00 | 00:00:00 | 00:00:00 | |
| KE7DJD | 2026-09-04 17:06:19 | 43.56686 | -116.20818 | 14° | 24km/h | 1641m | 5.1m/s | 6.9°C | 62.5% | 0hPa | 0V | 00:00:00 | 00:00:00 | 00:00:00 | |
| KE7DJD | 2026-09-04 17:05:58 | 43.56623 | -116.20856 | 17° | 20km/h | 1542m | 4.7m/s | 6.1°C | 71.3% | 0hPa | 0V | 00:00:00 | 00:00:00 | 00:00:00 | |
| KE7DJD | 2026-09-04 17:05:38 | 43.56624 | -116.20877 | 120° | 15km/h | 1444m | 5.1m/s | 0°C | 0% | 0hPa | 0V | 00:00:00 | 00:00:00 | 00:00:00 | |
| KE7DJD | 2026-09-04 17:05:18 | 43.56618 | -116.20890 | 108° | 20km/h | 1337m | 5.0m/s | 0°C | 0% | 0hPa | 0V | 00:00:00 | 00:00:00 | 00:00:00 | |
| KE7DJD | 2026-09-04 17:04:57 | 43.56654 | -116.20923 | 124° | 22km/h | 1222m | 5.3m/s | 0°C | 0% | 0hPa | 0V | 00:00:00 | 00:00:00 | 00:00:00 |